Time;durP1;ratioP1;P1;durP2;ratioP2;P2;SDS_P1;SDS_P2;PMS_P1;PMS_P2;Temp;Humidity;BMP_temperature;BMP_pressure;BME280_temperature;BME280_humidity;BME280_pressure;Samples;Min_cycle;Max_cycle;Signal;HPM_P1;HPM_P2
2023/03/23 00:02:32;;;;;;;10.30;4.32;;;9.90;99.90;;;;;;5092946;28;20052;-83
2023/03/23 00:05:00;;;;;;;11.95;5.43;;;9.90;99.90;;;;;;5093023;28;20401;-83
2023/03/23 00:07:27;;;;;;;11.80;4.65;;;9.90;99.90;;;;;;5093089;28;20036;-82
2023/03/23 00:09:54;;;;;;;14.00;5.28;;;10.00;99.90;;;;;;5092908;28;20105;-82
2023/03/23 00:12:34;;;;;;;10.95;5.15;;;9.90;99.90;;;;;;5092666;28;20048;-81
2023/03/23 00:15:01;;;;;;;12.35;5.63;;;10.00;99.90;;;;;;5094126;28;20046;-82
2023/03/23 00:17:28;;;;;;;13.23;6.68;;;10.00;99.90;;;;;;5093953;28;20044;-82
2023/03/23 00:19:55;;;;;;;12.88;6.57;;;10.00;99.90;;;;;;5093930;28;20048;-82
2023/03/23 00:22:21;;;;;;;14.00;6.53;;;10.00;99.90;;;;;;5092554;28;20391;-82
2023/03/23 00:24:50;;;;;;;11.93;6.28;;;10.10;99.90;;;;;;5092651;28;20479;-82
2023/03/23 00:27:16;;;;;;;14.68;6.90;;;10.00;99.90;;;;;;5093431;28;20043;-81
2023/03/23 00:29:44;;;;;;;13.75;6.47;;;10.00;99.90;;;;;;5093808;28;20044;-81
2023/03/23 00:32:13;;;;;;;12.82;5.32;;;10.00;99.90;;;;;;5092257;28;20131;-81
2023/03/23 00:34:41;;;;;;;10.75;5.60;;;10.00;99.90;;;;;;5092106;28;20048;-81
2023/03/23 00:37:08;;;;;;;11.45;5.45;;;9.90;99.90;;;;;;5092529;28;20056;-81
2023/03/23 00:39:36;;;;;;;10.93;4.95;;;10.00;99.90;;;;;;5092267;28;20123;-81
2023/03/23 00:42:02;;;;;;;11.18;5.63;;;10.00;99.90;;;;;;5093526;28;20044;-81
2023/03/23 00:44:30;;;;;;;13.18;6.47;;;9.90;99.90;;;;;;5092376;28;20068;-82
2023/03/23 00:46:56;;;;;;;14.18;6.68;;;9.90;99.90;;;;;;5093884;28;20072;-82
2023/03/23 00:49:26;;;;;;;14.70;7.47;;;10.00;99.90;;;;;;5096396;28;20419;-81
2023/03/23 00:51:54;;;;;;;15.68;8.38;;;10.10;99.90;;;;;;5097709;28;20044;-82
2023/03/23 00:54:20;;;;;;;23.27;12.93;;;9.90;99.90;;;;;;5096318;28;20043;-81
2023/03/23 00:56:47;;;;;;;34.03;17.95;;;10.10;99.90;;;;;;5096556;28;20048;-82
2023/03/23 00:59:12;;;;;;;38.13;20.08;;;10.10;99.90;;;;;;5096560;28;20439;-82
2023/03/23 01:01:39;;;;;;;39.88;22.95;;;10.10;99.90;;;;;;5097597;28;20055;-81
2023/03/23 01:04:06;;;;;;;41.67;22.55;;;10.20;99.90;;;;;;5097213;28;20079;-81
2023/03/23 01:06:38;;;;;;;44.08;24.83;;;10.20;99.90;;;;;;5095938;28;20479;-82
2023/03/23 01:09:05;;;;;;;;;;;10.10;99.90;;;;;;5097929;28;20043;-82
2023/03/23 01:11:31;;;;;;;42.42;23.98;;;10.10;99.90;;;;;;5096700;28;19969;-82
2023/03/23 01:13:57;;;;;;;40.20;22.67;;;10.20;99.90;;;;;;5095995;28;20043;-81
2023/03/23 01:16:23;;;;;;;38.13;21.98;;;10.20;99.90;;;;;;5095838;28;20039;-81
2023/03/23 01:18:49;;;;;;;32.65;19.58;;;10.10;99.90;;;;;;5095737;28;20040;-81
2023/03/23 01:21:17;;;;;;;33.80;20.35;;;10.10;99.90;;;;;;5095734;28;20129;-81
2023/03/23 01:23:43;;;;;;;34.92;19.92;;;10.10;99.90;;;;;;5095714;28;20055;-81
2023/03/23 01:26:18;;;;;;;31.92;19.48;;;10.10;99.90;;;;;;5095698;28;20518;-81
2023/03/23 01:28:44;;;;;;;31.50;18.60;;;10.10;99.90;;;;;;5096942;28;20384;-81
2023/03/23 01:31:13;;;;;;;32.60;19.33;;;10.10;99.90;;;;;;5095927;28;20044;-81
2023/03/23 01:33:39;;;;;;;32.10;18.60;;;10.20;99.90;;;;;;5095761;28;20101;-81
2023/03/23 01:36:09;;;;;;;30.50;17.30;;;10.10;99.90;;;;;;5095183;28;20483;-81
2023/03/23 01:38:35;;;;;;;28.63;16.55;;;10.20;99.90;;;;;;5095481;28;20384;-81
2023/03/23 01:41:01;;;;;;;30.70;17.80;;;10.20;99.90;;;;;;5095689;28;20562;-81
2023/03/23 01:43:27;;;;;;;23.45;15.68;;;10.20;99.90;;;;;;5096540;28;20043;-81
2023/03/23 01:45:53;;;;;;;24.40;15.48;;;10.30;99.90;;;;;;5096648;28;20044;-82
2023/03/23 01:48:28;;;;;;;29.58;15.40;;;10.30;99.90;;;;;;5095461;28;20101;-81
2023/03/23 01:50:59;;;;;;;25.98;15.27;;;10.30;99.90;;;;;;5095522;28;20073;-81
2023/03/23 01:53:31;;;;;;;27.50;16.00;;;10.30;99.90;;;;;;5096495;28;20051;-81
2023/03/23 01:55:58;;;;;;;25.20;15.02;;;10.30;99.90;;;;;;5095220;28;20051;-82
2023/03/23 01:58:30;;;;;;;23.92;14.90;;;10.40;99.90;;;;;;5094612;28;20051;-82
2023/03/23 02:01:00;;;;;;;24.23;13.27;;;10.30;99.90;;;;;;5094887;28;20048;-82
2023/03/23 02:03:28;;;;;;;26.13;13.25;;;10.40;99.90;;;;;;5095853;28;20036;-82
2023/03/23 02:05:58;;;;;;;21.30;13.48;;;10.40;99.90;;;;;;5096286;28;20063;-82
2023/03/23 02:08:26;;;;;;;21.65;13.20;;;10.30;99.90;;;;;;5094792;28;20071;-82
2023/03/23 02:10:52;;;;;;;30.83;14.85;;;10.40;99.90;;;;;;5094971;28;20062;-82
2023/03/23 02:13:18;;;;;;;25.40;14.40;;;10.40;99.90;;;;;;5096209;28;20036;-81
2023/03/23 02:16:01;;;;;;;21.48;12.57;;;10.40;99.90;;;;;;5094732;28;20491;-81
2023/03/23 02:18:37;;;;;;;20.45;12.80;;;10.50;99.90;;;;;;5095079;28;20147;-81
2023/03/23 02:21:39;;;;;;;23.77;13.57;;;10.60;99.90;;;;;;5095025;28;20082;-81
2023/03/23 02:24:30;;;;;;;24.25;12.85;;;10.60;99.90;;;;;;5094658;28;20487;-81
2023/03/23 02:27:01;;;;;;;24.75;14.85;;;10.50;99.90;;;;;;5096045;28;20040;-82
2023/03/23 02:29:54;;;;;;;22.75;12.80;;;10.60;99.90;;;;;;5095827;28;20075;-82
2023/03/23 02:32:53;;;;;;;26.70;13.95;;;10.50;99.90;;;;;;5095858;28;20043;-82
2023/03/23 02:35:34;;;;;;;19.98;12.40;;;10.60;99.90;;;;;;5042277;28;20384;-83
2023/03/23 02:38:42;;;;;;;20.13;11.77;;;10.60;99.90;;;;;;5094526;28;20055;-82
2023/03/23 02:41:08;;;;;;;23.75;12.25;;;10.60;99.90;;;;;;5092197;28;20058;-82
2023/03/23 02:43:42;;;;;;;22.13;12.93;;;10.60;99.90;;;;;;5095571;28;20036;-82
2023/03/23 02:46:09;;;;;;;23.35;11.95;;;10.50;99.90;;;;;;5094595;28;20036;-82
2023/03/23 02:48:36;;;;;;;17.80;11.38;;;10.60;99.90;;;;;;5094340;28;20102;-82
2023/03/23 02:51:03;;;;;;;19.40;10.60;;;10.60;99.90;;;;;;5095239;28;20044;-81
2023/03/23 02:53:31;;;;;;;18.13;10.23;;;10.50;99.90;;;;;;5094252;28;20436;-81
2023/03/23 02:55:58;;;;;;;18.75;10.80;;;10.60;99.90;;;;;;5094051;28;20154;-82
2023/03/23 02:58:25;;;;;;;20.45;10.63;;;10.60;99.90;;;;;;5095392;28;20596;-82
2023/03/23 03:00:50;;;;;;;18.25;10.25;;;10.60;99.90;;;;;;5094226;28;20044;-82
2023/03/23 03:03:20;;;;;;;14.40;9.15;;;10.60;99.90;;;;;;5093987;28;20046;-82
2023/03/23 03:06:16;;;;;;;18.10;9.05;;;10.60;99.90;;;;;;5093775;28;20052;-82
2023/03/23 03:08:54;;;;;;;18.73;9.25;;;10.60;99.90;;;;;;5095184;28;20059;-82
2023/03/23 03:11:25;;;;;;;15.63;8.60;;;10.60;99.90;;;;;;5094101;28;20048;-82
2023/03/23 03:13:59;;;;;;;17.95;8.93;;;10.60;99.90;;;;;;5093613;28;20483;-82
2023/03/23 03:16:30;;;;;;;15.98;8.30;;;10.70;99.90;;;;;;5093684;28;20047;-82
2023/03/23 03:19:15;;;;;;;19.13;7.88;;;10.70;99.90;;;;;;5093902;28;20537;-82
2023/03/23 03:21:42;;;;;;;17.48;7.93;;;10.70;99.90;;;;;;5094856;28;20049;-81
2023/03/23 03:24:13;;;;;;;19.05;8.35;;;10.60;99.90;;;;;;5094810;28;20067;-81
2023/03/23 03:26:45;;;;;;;21.70;8.88;;;10.60;99.90;;;;;;5093715;28;20048;-81
2023/03/23 03:29:11;;;;;;;12.65;6.97;;;10.70;99.90;;;;;;5094948;28;20051;-81
2023/03/23 03:31:45;;;;;;;18.20;8.25;;;10.70;99.90;;;;;;5093378;28;20063;-82
2023/03/23 03:34:12;;;;;;;15.82;8.43;;;10.70;99.90;;;;;;5094675;28;20483;-82
2023/03/23 03:36:46;;;;;;;15.98;7.60;;;10.70;99.90;;;;;;5092933;28;20105;-82
2023/03/23 03:39:17;;;;;;;14.60;8.23;;;10.70;99.90;;;;;;5093197;28;20073;-82
2023/03/23 03:41:43;;;;;;;15.02;7.78;;;10.70;99.90;;;;;;5093473;28;20117;-82
2023/03/23 03:44:09;;;;;;;16.67;7.50;;;10.80;99.90;;;;;;5093195;28;20054;-83
2023/03/23 03:46:36;;;;;;;13.98;7.47;;;10.70;99.90;;;;;;5093104;28;20430;-83
2023/03/23 03:49:03;;;;;;;17.40;7.38;;;10.70;99.90;;;;;;5092934;28;20044;-83
2023/03/23 03:51:30;;;;;;;18.13;7.00;;;10.60;99.90;;;;;;5093045;28;20052;-83
2023/03/23 03:53:56;;;;;;;13.35;5.90;;;10.60;99.90;;;;;;5093174;28;20475;-83
2023/03/23 03:56:22;;;;;;;12.48;5.90;;;10.60;99.90;;;;;;5094331;28;20051;-83
2023/03/23 03:58:49;;;;;;;13.88;5.40;;;10.50;99.90;;;;;;5094208;28;20043;-83
2023/03/23 04:01:21;;;;;;;14.15;4.80;;;10.40;99.90;;;;;;5093144;28;20056;-83
2023/03/23 04:03:47;;;;;;;12.00;3.97;;;10.40;99.90;;;;;;5094426;28;20044;-83
2023/03/23 04:06:12;;;;;;;14.13;4.45;;;10.20;99.90;;;;;;5094069;28;20131;-83
2023/03/23 04:08:41;;;;;;;11.57;3.72;;;10.30;99.90;;;;;;5092970;28;20407;-82
2023/03/23 04:11:07;;;;;;;11.68;4.22;;;10.20;99.90;;;;;;5094010;28;20069;-82
2023/03/23 04:13:32;;;;;;;11.35;4.28;;;10.20;99.90;;;;;;5092959;28;20048;-82
2023/03/23 04:15:58;;;;;;;14.18;4.72;;;10.20;99.90;;;;;;5092440;28;20395;-82
2023/03/23 04:18:24;;;;;;;13.02;5.80;;;10.10;99.90;;;;;;5093933;28;20042;-82
2023/03/23 04:20:51;;;;;;;11.77;5.47;;;10.10;99.90;;;;;;5093758;28;20055;-82
2023/03/23 04:23:19;;;;;;;15.30;6.03;;;10.10;99.90;;;;;;5092129;28;20127;-82
2023/03/23 04:25:53;;;;;;;14.32;5.35;;;10.10;99.90;;;;;;5093845;28;20047;-82
2023/03/23 04:28:23;;;;;;;15.52;5.63;;;10.10;99.90;;;;;;5093845;28;20048;-82
2023/03/23 04:30:52;;;;;;;14.88;5.50;;;10.10;99.90;;;;;;5092706;28;20051;-82
2023/03/23 04:33:21;;;;;;;15.32;5.13;;;10.10;99.90;;;;;;5093827;28;20204;-82
2023/03/23 04:35:51;;;;;;;11.70;4.25;;;10.20;99.90;;;;;;5092049;28;20048;-82
2023/03/23 04:38:20;;;;;;;15.23;5.07;;;10.20;99.90;;;;;;5093702;28;20429;-82
2023/03/23 04:40:46;;;;;;;15.98;5.25;;;10.20;99.90;;;;;;5092464;28;20036;-82
2023/03/23 04:43:12;;;;;;;10.77;4.50;;;10.20;99.90;;;;;;5092262;28;20040;-82
2023/03/23 04:45:41;;;;;;;12.10;4.85;;;10.20;99.90;;;;;;5092216;28;20123;-82
2023/03/23 04:48:08;;;;;;;14.02;4.72;;;10.20;99.90;;;;;;5092352;28;20067;-82
2023/03/23 04:50:34;;;;;;;16.65;4.55;;;10.10;99.90;;;;;;5092897;28;20131;-82
2023/03/23 04:53:04;;;;;;;10.15;2.97;;;10.20;99.90;;;;;;5093562;28;20070;-82
2023/03/23 04:55:38;;;;;;;13.85;3.65;;;10.20;99.90;;;;;;5092276;28;20052;-82
2023/03/23 04:58:06;;;;;;;16.90;4.38;;;10.20;99.90;;;;;;5092472;28;20044;-82
2023/03/23 05:00:33;;;;;;;18.50;3.92;;;10.30;99.90;;;;;;5092351;28;20495;-82
2023/03/23 05:03:00;;;;;;;15.55;3.67;;;10.30;99.90;;;;;;5091941;28;20044;-82
2023/03/23 05:05:27;;;;;;;14.15;3.25;;;10.20;99.90;;;;;;5092021;28;20486;-82
2023/03/23 05:07:53;;;;;;;12.07;3.65;;;10.20;99.90;;;;;;5091936;28;20044;-82
2023/03/23 05:10:19;;;;;;;14.38;3.75;;;10.20;99.90;;;;;;5092260;28;20062;-82
2023/03/23 05:12:45;;;;;;;16.35;3.22;;;10.20;99.90;;;;;;5093432;28;20062;-82
2023/03/23 05:15:13;;;;;;;18.13;3.92;;;10.10;99.90;;;;;;5091967;28;20036;-82
2023/03/23 05:17:40;;;;;;;14.52;3.97;;;10.20;99.90;;;;;;5092117;28;20075;-82
2023/03/23 05:20:11;;;;;;;14.95;3.80;;;10.10;99.90;;;;;;5093316;28;20044;-81
2023/03/23 05:22:38;;;;;;;16.25;3.92;;;10.10;99.90;;;;;;5093308;28;20094;-81
2023/03/23 05:25:11;;;;;;;23.40;5.65;;;10.10;99.90;;;;;;5092203;28;20097;-81
2023/03/23 05:27:43;;;;;;;;;;;10.00;99.90;;;;;;5093495;28;20478;-82
2023/03/23 05:30:09;;;;;;;24.60;3.85;;;10.00;99.90;;;;;;5091803;28;19924;-81
2023/03/23 05:32:37;;;;;;;23.13;4.55;;;10.00;99.90;;;;;;5091279;28;20135;-81
2023/03/23 05:35:03;;;;;;;16.88;4.65;;;10.00;99.90;;;;;;5094243;28;20052;-81
2023/03/23 05:37:31;;;;;;;21.23;3.78;;;10.00;99.90;;;;;;5096954;28;20040;-81
2023/03/23 05:40:04;;;;;;;23.00;4.57;;;10.00;99.90;;;;;;5095124;28;20052;-82
2023/03/23 05:42:31;;;;;;;;;;;9.90;99.90;;;;;;5095731;28;20051;-81
2023/03/23 05:44:57;;;;;;;28.83;4.38;;;10.00;99.90;;;;;;5095041;28;19920;-81
2023/03/23 05:47:22;;;;;;;18.85;4.15;;;9.90;99.90;;;;;;5095398;28;20080;-81
2023/03/23 05:49:48;;;;;;;28.23;5.45;;;9.90;99.90;;;;;;5096435;28;20077;-81
2023/03/23 05:52:14;;;;;;;25.95;4.50;;;9.80;99.90;;;;;;5095376;28;20135;-81
2023/03/23 05:54:41;;;;;;;22.20;4.10;;;9.90;99.90;;;;;;5094629;28;20380;-81
2023/03/23 05:57:08;;;;;;;20.98;4.55;;;9.90;99.90;;;;;;5095015;28;20047;-81
2023/03/23 05:59:35;;;;;;;23.27;4.53;;;9.80;99.90;;;;;;5096352;28;20076;-81
2023/03/23 06:02:00;;;;;;;23.70;5.90;;;9.90;99.90;;;;;;5094925;28;20048;-81
2023/03/23 06:04:26;;;;;;;24.75;5.32;;;9.80;99.90;;;;;;5096035;28;20055;-81
2023/03/23 06:06:52;;;;;;;23.38;4.45;;;9.80;99.90;;;;;;5095938;28;20043;-81
2023/03/23 06:09:19;;;;;;;22.10;3.72;;;9.80;99.90;;;;;;5094718;28;20048;-82
2023/03/23 06:11:45;;;;;;;23.17;5.40;;;9.80;99.90;;;;;;5094641;28;20068;-82
2023/03/23 06:14:12;;;;;;;19.40;3.55;;;9.90;99.90;;;;;;5094790;28;20067;-82
2023/03/23 06:16:38;;;;;;;26.67;4.15;;;9.80;99.90;;;;;;5094380;28;20051;-81
2023/03/23 06:19:03;;;;;;;24.13;4.00;;;9.70;99.90;;;;;;5094672;28;20391;-81
2023/03/23 06:21:31;;;;;;;26.48;3.30;;;9.70;99.90;;;;;;5095690;28;20483;-81
2023/03/23 06:23:59;;;;;;;26.40;4.70;;;9.70;99.90;;;;;;5094565;28;20036;-81
2023/03/23 06:26:30;;;;;;;14.80;3.03;;;9.70;99.90;;;;;;5095691;28;20119;-82
2023/03/23 06:28:57;;;;;;;22.27;3.22;;;9.60;99.90;;;;;;5095561;28;20533;-81
2023/03/23 06:31:24;;;;;;;14.55;2.75;;;9.60;99.90;;;;;;5095842;28;20044;-82
2023/03/23 06:33:50;;;;;;;15.13;2.42;;;9.60;99.90;;;;;;5095671;28;20048;-81
2023/03/23 06:36:16;;;;;;;12.77;3.03;;;9.60;99.90;;;;;;5094092;28;20063;-81
2023/03/23 06:38:42;;;;;;;12.30;1.90;;;9.60;99.90;;;;;;5095439;28;20505;-81
2023/03/23 06:41:08;;;;;;;8.43;1.73;;;9.60;99.90;;;;;;5094096;28;20076;-81
2023/03/23 06:43:36;;;;;;;8.38;1.60;;;9.70;99.90;;;;;;5094296;28;20075;-81
2023/03/23 06:46:02;;;;;;;7.00;1.27;;;9.80;99.90;;;;;;5093747;28;20050;-81
2023/03/23 06:48:28;;;;;;;11.35;1.83;;;9.80;99.90;;;;;;5095464;28;20086;-81
2023/03/23 06:50:53;;;;;;;11.38;1.85;;;9.90;99.90;;;;;;5094172;28;20079;-81
2023/03/23 06:53:20;;;;;;;10.25;1.65;;;9.90;99.90;;;;;;5093984;28;20471;-81
2023/03/23 06:55:46;;;;;;;13.80;1.77;;;9.90;99.90;;;;;;5095023;28;20127;-81
2023/03/23 06:58:12;;;;;;;11.20;1.60;;;10.00;99.90;;;;;;5093734;28;20399;-81
2023/03/23 07:00:40;;;;;;;7.45;1.40;;;10.00;99.90;;;;;;5093930;28;20047;-81
2023/03/23 07:03:06;;;;;;;14.85;1.92;;;10.00;99.90;;;;;;5093955;28;20067;-81
2023/03/23 07:05:34;;;;;;;12.65;2.00;;;10.00;99.90;;;;;;5093668;28;20406;-81
2023/03/23 07:08:01;;;;;;;9.55;1.35;;;10.20;99.90;;;;;;5093662;28;20054;-81
2023/03/23 07:10:27;;;;;;;14.15;2.17;;;10.20;99.90;;;;;;5093880;28;20051;-81
2023/03/23 07:12:53;;;;;;;12.88;3.08;;;10.30;99.90;;;;;;5094984;28;20051;-80
2023/03/23 07:15:18;;;;;;;18.92;4.55;;;10.30;99.90;;;;;;5093467;28;20048;-81
2023/03/23 07:17:45;;;;;;;18.00;3.33;;;10.40;99.90;;;;;;5093829;28;20054;-80
2023/03/23 07:20:11;;;;;;;20.42;3.53;;;10.40;99.90;;;;;;5093671;28;20138;-81
2023/03/23 07:22:38;;;;;;;17.67;3.28;;;10.50;99.90;;;;;;5093492;28;20077;-81
2023/03/23 07:25:04;;;;;;;18.67;4.28;;;10.50;99.90;;;;;;5093423;28;20047;-81
2023/03/23 07:27:30;;;;;;;21.95;3.30;;;10.50;99.90;;;;;;5093452;28;20131;-81
2023/03/23 07:29:57;;;;;;;24.10;4.47;;;10.60;99.90;;;;;;5094519;28;20130;-82
2023/03/23 07:32:24;;;;;;;25.17;3.15;;;10.70;99.90;;;;;;5093168;28;20079;-81
2023/03/23 07:34:51;;;;;;;20.08;3.28;;;10.80;99.90;;;;;;5092799;28;20056;-85
2023/03/23 07:37:17;;;;;;;27.75;5.43;;;10.90;99.90;;;;;;5093361;28;20074;-85
2023/03/23 07:39:43;;;;;;;19.63;3.65;;;10.90;99.90;;;;;;5091834;28;20395;-80
2023/03/23 07:42:09;;;;;;;27.77;5.63;;;10.90;99.90;;;;;;5094020;28;20261;-80
2023/03/23 07:44:35;;;;;;;26.75;4.72;;;11.00;99.90;;;;;;5092750;28;20115;-86
2023/03/23 07:47:01;;;;;;;30.45;6.45;;;11.00;99.90;;;;;;5092692;28;20422;-86
2023/03/23 07:49:28;;;;;;;32.03;5.75;;;11.00;99.90;;;;;;5092935;28;20052;-81
2023/03/23 07:51:53;;;;;;;32.70;4.78;;;11.00;99.90;;;;;;5092950;28;20055;-85
2023/03/23 07:54:19;;;;;;;30.80;5.93;;;11.10;99.90;;;;;;5092541;28;20052;-81
2023/03/23 07:56:45;;;;;;;26.95;5.25;;;11.10;99.90;;;;;;5091937;28;20086;-81
2023/03/23 07:59:12;;;;;;;27.20;5.07;;;11.20;99.90;;;;;;5094040;28;20426;-82
2023/03/23 08:01:38;;;;;;;37.35;6.40;;;11.30;99.90;;;;;;5092470;28;20168;-80
2023/03/23 08:04:05;;;;;;;32.67;5.72;;;11.40;99.90;;;;;;5094018;28;20040;-81
2023/03/23 08:06:33;;;;;;;34.85;7.00;;;11.50;99.90;;;;;;5093681;28;20043;-81
2023/03/23 08:08:59;;;;;;;32.70;5.82;;;11.50;99.90;;;;;;5092387;28;20043;-81
2023/03/23 08:11:26;;;;;;;28.63;5.53;;;11.60;99.90;;;;;;5093785;28;20119;-86
2023/03/23 08:13:52;;;;;;;37.25;7.47;;;11.70;99.90;;;;;;5092648;28;20035;-84
2023/03/23 08:16:19;;;;;;;22.20;4.50;;;11.70;99.90;;;;;;5092228;28;20048;-81
2023/03/23 08:18:48;;;;;;;31.25;5.18;;;11.70;99.90;;;;;;5092773;28;20072;-81
2023/03/23 08:21:14;;;;;;;29.38;5.70;;;11.70;99.90;;;;;;5093926;28;20094;-81
2023/03/23 08:23:39;;;;;;;31.70;6.05;;;11.70;99.90;;;;;;5092323;28;20071;-81
2023/03/23 08:26:07;;;;;;;30.77;6.55;;;11.70;99.90;;;;;;5093734;28;20044;-80
2023/03/23 08:28:34;;;;;;;34.85;5.68;;;11.70;99.90;;;;;;5092444;28;20372;-80
2023/03/23 08:31:00;;;;;;;33.10;5.10;;;11.70;99.90;;;;;;5093603;28;20131;-80
2023/03/23 08:33:27;;;;;;;35.92;5.82;;;11.70;99.90;;;;;;5093696;28;20047;-80
2023/03/23 08:35:57;;;;;;;31.00;4.95;;;11.70;99.90;;;;;;5092078;28;20091;-81
2023/03/23 08:38:23;;;;;;;33.05;5.78;;;11.70;99.90;;;;;;5092220;28;21081;-81
2023/03/23 08:40:50;;;;;;;34.90;7.18;;;11.70;99.90;;;;;;5092485;28;20490;-81
2023/03/23 08:43:16;;;;;;;33.08;6.63;;;11.80;99.90;;;;;;5093790;28;20098;-81
2023/03/23 08:45:42;;;;;;;28.60;4.97;;;11.80;99.90;;;;;;5092032;28;20471;-81
2023/03/23 08:48:08;;;;;;;32.85;7.18;;;11.80;99.90;;;;;;5093421;28;20054;-81
2023/03/23 08:50:35;;;;;;;33.75;5.45;;;11.90;99.90;;;;;;5092064;28;20044;-81
2023/03/23 08:53:01;;;;;;;37.50;6.63;;;12.00;99.90;;;;;;5092028;28;20051;-81
2023/03/23 08:55:28;;;;;;;21.08;5.28;;;12.20;99.90;;;;;;5092685;28;20414;-80
2023/03/23 08:57:54;;;;;;;27.35;5.75;;;12.30;99.90;;;;;;5091977;28;20508;-81
2023/03/23 09:00:23;;;;;;;30.80;5.68;;;12.30;99.90;;;;;;5093224;28;20384;-81
2023/03/23 09:02:52;;;;;;;31.35;5.03;;;12.40;99.90;;;;;;5093152;28;20051;-81
2023/03/23 09:05:21;;;;;;;30.70;4.90;;;12.50;99.90;;;;;;5092151;28;20056;-81
2023/03/23 09:07:49;;;;;;;26.55;4.13;;;12.50;99.90;;;;;;5092259;28;20044;-80
2023/03/23 09:10:16;;;;;;;29.08;4.72;;;12.70;99.90;;;;;;5095922;28;20056;-80
2023/03/23 09:12:43;;;;;;;27.35;4.38;;;12.80;99.90;;;;;;5096072;28;20048;-80
2023/03/23 09:15:12;;;;;;;22.92;4.72;;;12.80;99.90;;;;;;5097196;28;20040;-80
2023/03/23 09:17:47;;;;;;;24.13;4.32;;;12.80;99.90;;;;;;5095839;28;20059;-80
2023/03/23 09:20:15;;;;;;;22.98;4.70;;;12.90;99.90;;;;;;5096958;28;20540;-80
2023/03/23 09:22:43;;;;;;;30.00;6.50;;;12.90;99.90;;;;;;5095574;28;20052;-80
2023/03/23 09:25:11;;;;;;;21.60;4.40;;;12.80;99.90;;;;;;5096025;28;20048;-80
2023/03/23 09:27:39;;;;;;;23.95;4.38;;;12.70;99.90;;;;;;5096191;28;20043;-80
2023/03/23 09:30:07;;;;;;;26.17;5.40;;;12.60;99.90;;;;;;5096548;28;20406;-80
2023/03/23 09:32:34;;;;;;;25.45;5.10;;;12.60;99.90;;;;;;5095399;28;20040;-80
2023/03/23 09:35:01;;;;;;;28.23;4.65;;;12.70;99.90;;;;;;5095412;28;20056;-80
2023/03/23 09:37:30;;;;;;;29.83;5.38;;;12.80;99.90;;;;;;5095554;28;20052;-80
2023/03/23 09:39:55;;;;;;;27.17;4.68;;;13.00;99.90;;;;;;5095244;28;20187;-80
2023/03/23 09:42:41;;;;;;;30.20;6.25;;;13.20;99.90;;;;;;5095459;28;20102;-80
2023/03/23 09:45:15;;;;;;;27.65;5.05;;;13.40;99.90;;;;;;5095210;28;20044;-80
2023/03/23 09:48:03;;;;;;;26.95;4.45;;;13.60;99.90;;;;;;5095656;28;20113;-80
2023/03/23 09:50:32;;;;;;;25.63;4.75;;;13.70;99.90;;;;;;5095327;28;20056;-80
2023/03/23 09:53:09;;;;;;;28.40;5.20;;;13.80;99.90;;;;;;5094917;28;20127;-80
2023/03/23 09:55:35;;;;;;;35.20;5.50;;;13.90;99.90;;;;;;5094965;28;20050;-80
2023/03/23 09:58:23;;;;;;;19.20;3.75;;;14.00;99.90;;;;;;5095090;28;20078;-80
2023/03/23 10:01:08;;;;;;;28.23;4.63;;;14.10;99.90;;;;;;5095208;28;20056;-80
2023/03/23 10:03:43;;;;;;;21.67;3.80;;;14.20;99.90;;;;;;5096139;28;20040;-80
2023/03/23 10:06:12;;;;;;;30.60;5.68;;;14.10;99.90;;;;;;5096411;28;20047;-80
2023/03/23 10:08:44;;;;;;;32.92;5.53;;;14.20;99.90;;;;;;5095989;28;20047;-80
2023/03/23 10:11:27;;;;;;;20.25;2.97;;;14.30;99.90;;;;;;5095078;28;20132;-80
2023/03/23 10:14:19;;;;;;;27.42;4.22;;;14.10;99.90;;;;;;5094769;28;20055;-80
2023/03/23 10:17:12;;;;;;;27.65;5.10;;;13.90;99.90;;;;;;5094505;28;20048;-80
2023/03/23 10:20:01;;;;;;;;;;;13.80;99.90;;;;;;5094877;28;20158;-80
2023/03/23 10:22:34;;;;;;;28.55;4.45;;;13.70;99.90;;;;;;5066149;28;19920;-80
2023/03/23 10:25:06;;;;;;;21.80;4.07;;;13.80;99.90;;;;;;5095991;28;20052;-80
2023/03/23 10:27:54;;;;;;;33.78;4.85;;;13.70;99.90;;;;;;5094480;28;20487;-80
2023/03/23 10:30:32;;;;;;;25.23;3.85;;;13.80;99.90;;;;;;5094483;28;20540;-80
2023/03/23 10:33:16;;;;;;;29.30;4.28;;;13.80;99.90;;;;;;5095543;28;20641;-80
2023/03/23 10:36:01;;;;;;;25.23;3.88;;;13.90;99.90;;;;;;5095455;28;20056;-80
2023/03/23 10:38:35;;;;;;;23.95;4.03;;;13.80;99.90;;;;;;5095643;28;20047;-80
2023/03/23 10:41:14;;;;;;;27.33;4.47;;;13.90;99.90;;;;;;5094408;28;20052;-80
2023/03/23 10:43:41;;;;;;;30.88;5.63;;;13.90;99.90;;;;;;5094412;28;20051;-80
2023/03/23 10:46:29;;;;;;;23.10;3.95;;;14.00;99.90;;;;;;5093989;28;20044;-79
2023/03/23 10:48:58;;;;;;;27.65;5.28;;;14.20;99.90;;;;;;5094207;28;20051;-80
2023/03/23 10:51:34;;;;;;;25.63;5.22;;;14.30;99.90;;;;;;5095451;28;20039;-79
2023/03/23 10:54:02;;;;;;;27.15;4.88;;;14.40;99.90;;;;;;5095327;28;20121;-80
2023/03/23 10:56:43;;;;;;;21.27;3.88;;;14.40;99.90;;;;;;5093845;28;20479;-80
2023/03/23 10:59:26;;;;;;;22.05;2.95;;;14.70;99.90;;;;;;5094275;28;20120;-80
2023/03/23 11:01:56;;;;;;;23.77;3.88;;;14.90;99.90;;;;;;5095283;28;20044;-80
2023/03/23 11:04:22;;;;;;;27.23;3.95;;;15.00;99.90;;;;;;5093711;28;20119;-80
2023/03/23 11:06:52;;;;;;;23.85;3.53;;;15.20;99.90;;;;;;5093828;28;20040;-80
2023/03/23 11:09:20;;;;;;;25.85;4.57;;;15.20;99.90;;;;;;5093820;28;20036;-80
2023/03/23 11:11:54;;;;;;;19.98;3.65;;;15.40;99.90;;;;;;5095061;28;20047;-79
2023/03/23 11:14:32;;;;;;;17.42;3.45;;;15.30;99.90;;;;;;5094703;28;20048;-80
2023/03/23 11:17:03;;;;;;;17.73;3.75;;;15.40;99.90;;;;;;5094674;28;20386;-79
2023/03/23 11:19:31;;;;;;;20.45;4.22;;;15.40;99.90;;;;;;5094815;28;20297;-80
2023/03/23 11:22:26;;;;;;;27.77;3.92;;;15.30;99.90;;;;;;5093436;28;20036;-80
2023/03/23 11:24:59;;;;;;;20.48;4.10;;;15.10;99.90;;;;;;5093645;28;20083;-79
2023/03/23 11:27:27;;;;;;;24.58;3.50;;;15.10;99.90;;;;;;5093570;28;20055;-79
2023/03/23 11:30:09;;;;;;;20.35;3.30;;;14.90;99.90;;;;;;5094550;28;20055;-79
2023/03/23 11:32:37;;;;;;;26.52;4.50;;;14.70;99.90;;;;;;5093530;28;20055;-79
2023/03/23 11:35:17;;;;;;;22.15;4.28;;;14.60;99.90;;;;;;5094195;28;20052;-80
2023/03/23 11:37:53;;;;;;;19.98;3.90;;;14.30;99.90;;;;;;5093431;28;20048;-80
2023/03/23 11:40:23;;;;;;;15.77;3.30;;;14.30;99.90;;;;;;5093312;28;20043;-79
2023/03/23 11:43:07;;;;;;;23.80;4.72;;;14.30;99.90;;;;;;5094236;28;20044;-80
2023/03/23 11:45:32;;;;;;;20.45;4.47;;;14.30;99.90;;;;;;5093191;28;20055;-79
2023/03/23 11:48:14;;;;;;;22.13;3.80;;;14.20;99.90;;;;;;5093176;28;20044;-80
2023/03/23 11:51:01;;;;;;;16.40;3.13;;;14.50;99.90;;;;;;5093226;28;20067;-79
2023/03/23 11:53:38;;;;;;;18.08;3.55;;;14.60;99.90;;;;;;5093950;28;20395;-79
2023/03/23 11:56:27;;;;;;;26.52;3.50;;;14.80;99.90;;;;;;5092772;28;20403;-79
2023/03/23 11:58:55;;;;;;;20.73;2.97;;;15.10;99.90;;;;;;5092673;28;20044;-79
2023/03/23 12:01:40;;;;;;;15.77;4.05;;;14.90;99.90;;;;;;5092733;28;20051;-80
2023/03/23 12:04:09;;;;;;;21.00;2.75;;;14.90;99.90;;;;;;5092806;28;20055;-79
2023/03/23 12:06:58;;;;;;;22.10;4.75;;;15.10;99.90;;;;;;5092560;28;20452;-79
2023/03/23 12:09:30;;;;;;;19.83;3.55;;;15.20;99.90;;;;;;5092894;28;20509;-79
2023/03/23 12:12:32;;;;;;;19.23;2.95;;;15.20;99.90;;;;;;5092565;28;20123;-79
2023/03/23 12:15:38;;;;;;;21.25;3.33;;;15.30;99.90;;;;;;5091097;28;20514;-79
2023/03/23 12:18:34;;;;;;;21.08;2.90;;;15.40;99.90;;;;;;5092513;28;20059;-79
2023/03/23 12:21:25;;;;;;;19.83;3.20;;;15.40;99.90;;;;;;5093743;28;20075;-79
2023/03/23 12:23:57;;;;;;;21.77;3.10;;;15.50;99.90;;;;;;5092653;28;20052;-79
2023/03/23 12:26:29;;;;;;;17.55;3.50;;;15.50;99.90;;;;;;5093676;28;20055;-79
2023/03/23 12:29:22;;;;;;;18.23;3.08;;;15.60;99.90;;;;;;5092712;28;20048;-79
2023/03/23 12:31:53;;;;;;;;;;;15.60;99.90;;;;;;5094279;28;20063;-79
2023/03/23 12:34:50;;;;;;;19.95;3.40;;;15.60;99.90;;;;;;5092538;28;20011;-79
2023/03/23 12:37:23;;;;;;;21.52;3.42;;;15.60;99.90;;;;;;5092211;28;20066;-79
2023/03/23 12:40:07;;;;;;;19.77;3.65;;;15.50;99.90;;;;;;5092215;28;20048;-79
2023/03/23 12:42:51;;;;;;;17.10;3.25;;;15.50;99.90;;;;;;5093423;28;20048;-79
2023/03/23 12:45:41;;;;;;;15.55;2.85;;;15.50;99.90;;;;;;5098012;28;20048;-79
2023/03/23 12:48:28;;;;;;;24.13;3.05;;;15.50;99.90;;;;;;5096673;28;20437;-79
2023/03/23 12:51:23;;;;;;;17.23;3.17;;;15.50;99.90;;;;;;5097846;28;20067;-79
2023/03/23 12:53:55;;;;;;;20.42;3.30;;;15.50;99.90;;;;;;5096290;28;20051;-79
2023/03/23 12:56:37;;;;;;;13.68;2.88;;;15.60;99.90;;;;;;5097305;28;20514;-79
2023/03/23 12:59:14;;;;;;;18.80;2.85;;;15.60;99.90;;;;;;5097434;28;20475;-79